Terminal Aerodrome Forecast
Issued by NWS

Home | Current Version | Previous Version | Text Only | Print | Product List | Glossary On
Versions: 1 2 3 4 5 6 7 8 9 10 11 12 13 14 15 16 17 18 19 20 21 22 23 24 25 26 27 28 29
000
FTUS46 KLOX 310300 AAC
TAFLAX
TAF AMD
KLAX 310342Z 3104/0106 27007KT P6SM SCT015 BKN200
     FM310600 26005KT P6SM BKN017 BKN200
     FM310800 VRB03KT 5SM -DZ BR BKN008 BKN017
     FM311400 12005KT 6SM BR BKN017 OVC035
     FM311900 24007KT P6SM BKN025 BKN050
     FM312200 25010KT P6SM -SHRA BKN025 OVC040
     FM010400 19007KT 6SM -RA BKN012 OVC025=

USA.gov is the U.S. government's official web portal to all federal, state and local government web resources and services.